createdAt,value
2018-08-04T00:01:49.851Z,4.60
2018-08-04T00:04:17.680Z,5.13
2018-08-04T00:06:45.505Z,5.23
2018-08-04T00:09:13.403Z,4.70
2018-08-04T00:11:41.768Z,4.80
2018-08-04T00:14:09.816Z,5.20
2018-08-04T00:16:37.764Z,5.13
2018-08-04T00:19:06.282Z,5.30
2018-08-04T00:21:34.256Z,5.30
2018-08-04T00:24:02.034Z,4.60
2018-08-04T00:26:31.257Z,4.60
2018-08-04T00:29:00.268Z,5.07
2018-08-04T00:31:29.575Z,5.43
2018-08-04T00:33:57.464Z,4.97
2018-08-04T00:36:25.646Z,5.30
2018-08-04T00:38:53.987Z,4.97
2018-08-04T00:41:21.886Z,5.23
2018-08-04T00:43:50.211Z,5.50
2018-08-04T00:46:18.220Z,5.83
2018-08-04T00:48:46.321Z,5.13
2018-08-04T00:51:14.229Z,5.67
2018-08-04T00:53:42.241Z,5.33
2018-08-04T00:56:10.455Z,5.30
2018-08-04T00:58:38.574Z,4.73
2018-08-04T01:01:06.963Z,5.80
2018-08-04T01:03:35.108Z,5.50
2018-08-04T01:06:02.988Z,5.17
2018-08-04T01:08:30.787Z,4.73
2018-08-04T01:10:58.700Z,5.93
2018-08-04T01:13:26.464Z,4.73
2018-08-04T01:15:54.267Z,5.77
2018-08-04T01:18:22.120Z,5.50
2018-08-04T01:20:49.895Z,5.73
2018-08-04T01:23:17.854Z,5.80
2018-08-04T01:25:45.821Z,6.10
2018-08-04T01:28:13.622Z,6.00
2018-08-04T01:30:41.455Z,5.10
2018-08-04T01:33:09.243Z,5.47
2018-08-04T01:35:37.960Z,6.60
2018-08-04T01:38:05.752Z,5.33
2018-08-04T01:40:33.540Z,6.00
2018-08-04T01:43:01.352Z,5.30
2018-08-04T01:45:29.143Z,4.87
2018-08-04T01:47:57.016Z,5.07
2018-08-04T01:50:24.891Z,5.53
2018-08-04T01:52:52.791Z,5.80
2018-08-04T01:55:20.596Z,5.50
2018-08-04T01:57:48.350Z,5.63
2018-08-04T02:00:16.195Z,5.73
2018-08-04T02:02:44.008Z,5.57
2018-08-04T02:05:11.748Z,5.20
2018-08-04T02:07:39.523Z,5.57
2018-08-04T02:10:07.335Z,5.30
2018-08-04T02:12:35.200Z,5.67
2018-08-04T02:15:03.039Z,5.67
2018-08-04T02:17:30.805Z,5.77
2018-08-04T02:19:58.536Z,6.10
2018-08-04T02:22:26.399Z,5.40
2018-08-04T02:24:54.160Z,5.10
2018-08-04T02:27:22.072Z,5.57
2018-08-04T02:29:50.181Z,5.57
2018-08-04T02:32:17.943Z,5.47
2018-08-04T02:34:45.689Z,6.20
2018-08-04T02:37:13.555Z,5.90
2018-08-04T02:39:41.429Z,5.70
2018-08-04T02:42:09.279Z,5.60
2018-08-04T02:44:37.123Z,5.67
2018-08-04T02:47:04.963Z,5.60
2018-08-04T02:49:32.764Z,5.57
2018-08-04T02:52:00.578Z,5.00
2018-08-04T02:54:28.360Z,4.63
2018-08-04T02:56:56.139Z,4.17
2018-08-04T02:59:23.984Z,4.27
2018-08-04T03:01:51.804Z,4.50
2018-08-04T03:04:19.656Z,4.20
2018-08-04T03:06:47.499Z,5.87
2018-08-04T03:09:15.326Z,5.40
2018-08-04T03:11:43.168Z,4.83
2018-08-04T03:14:11.041Z,4.50
2018-08-04T03:16:38.847Z,5.83
2018-08-04T03:19:06.802Z,5.27
2018-08-04T03:21:34.648Z,5.60
2018-08-04T03:24:02.469Z,5.30
2018-08-04T03:26:30.219Z,6.07
2018-08-04T03:28:58.100Z,5.67
2018-08-04T03:31:25.892Z,5.47
2018-08-04T03:33:53.659Z,5.80
2018-08-04T03:36:21.432Z,6.00
2018-08-04T03:38:49.215Z,5.97
2018-08-04T03:41:17.110Z,6.97
2018-08-04T03:43:44.937Z,5.87
2018-08-04T03:46:12.836Z,5.87
2018-08-04T03:48:40.584Z,6.23
2018-08-04T03:51:08.396Z,6.67
2018-08-04T03:53:36.256Z,6.60
2018-08-04T03:56:04.126Z,6.27
2018-08-04T03:58:31.935Z,6.87
2018-08-04T04:00:59.877Z,6.53
2018-08-04T04:03:27.739Z,6.43
2018-08-04T04:05:55.493Z,6.77
2018-08-04T04:08:23.316Z,7.03
2018-08-04T04:10:51.155Z,6.77
2018-08-04T04:13:18.986Z,6.83
2018-08-04T04:15:46.776Z,6.73
2018-08-04T04:18:14.635Z,7.00
2018-08-04T04:20:42.419Z,6.97
2018-08-04T04:23:10.184Z,6.70
2018-08-04T04:25:37.971Z,6.43
2018-08-04T04:28:05.799Z,6.47
2018-08-04T04:30:33.627Z,6.80
2018-08-04T04:33:01.389Z,7.03
2018-08-04T04:35:29.212Z,6.60
2018-08-04T04:37:57.012Z,6.67
2018-08-04T04:40:24.841Z,6.30
2018-08-04T04:42:52.639Z,5.87
2018-08-04T04:45:20.486Z,6.60
2018-08-04T04:47:48.310Z,6.07
2018-08-04T04:50:16.229Z,6.07
2018-08-04T04:52:44.107Z,6.10
2018-08-04T04:55:11.965Z,6.17
2018-08-04T04:57:39.758Z,5.80
2018-08-04T05:00:07.639Z,5.67
2018-08-04T05:02:35.360Z,5.87
2018-08-04T05:05:03.577Z,5.50
2018-08-04T05:07:31.404Z,6.13
2018-08-04T05:09:59.170Z,6.87
2018-08-04T05:12:27.092Z,6.17
2018-08-04T05:14:54.895Z,6.50
2018-08-04T05:17:22.675Z,6.30
2018-08-04T05:19:50.455Z,6.40
2018-08-04T05:22:18.230Z,6.03
2018-08-04T05:24:46.025Z,5.97
2018-08-04T05:27:13.929Z,6.67
2018-08-04T05:29:41.754Z,6.60
2018-08-04T05:32:09.574Z,6.70
2018-08-04T05:34:37.435Z,6.77
2018-08-04T05:37:05.759Z,6.33
2018-08-04T05:39:33.587Z,6.93
2018-08-04T05:42:01.312Z,6.20
2018-08-04T05:44:29.630Z,6.13
2018-08-04T05:46:57.496Z,6.43
2018-08-04T05:49:25.377Z,7.77
2018-08-04T05:51:53.211Z,6.57
2018-08-04T05:54:21.064Z,5.93
2018-08-04T05:56:48.812Z,6.30
2018-08-04T05:59:16.632Z,6.53
2018-08-04T06:01:44.485Z,5.97
2018-08-04T06:04:12.283Z,6.17
2018-08-04T06:06:40.073Z,5.43
2018-08-04T06:09:09.201Z,5.60
2018-08-04T06:11:37.078Z,5.93
2018-08-04T06:14:05.048Z,5.97
2018-08-04T06:16:32.976Z,5.87
2018-08-04T06:19:01.476Z,5.40
2018-08-04T06:21:29.467Z,6.23
2018-08-04T06:23:57.351Z,5.70
2018-08-04T06:26:25.147Z,5.80
2018-08-04T06:28:53.055Z,5.80
2018-08-04T06:31:20.896Z,6.00
2018-08-04T06:33:48.751Z,5.27
2018-08-04T06:36:16.485Z,6.03
2018-08-04T06:38:44.319Z,6.03
2018-08-04T06:41:12.111Z,5.80
2018-08-04T06:43:39.993Z,5.70
2018-08-04T06:46:07.851Z,6.10
2018-08-04T06:48:35.911Z,6.20
2018-08-04T06:51:03.755Z,6.10
2018-08-04T06:53:31.623Z,6.17
2018-08-04T06:55:59.533Z,6.00
2018-08-04T06:58:27.427Z,5.97
2018-08-04T07:00:55.241Z,5.87
2018-08-04T07:03:23.052Z,6.20
2018-08-04T07:05:50.818Z,5.40
2018-08-04T07:08:18.647Z,6.27
2018-08-04T07:10:46.407Z,6.43
2018-08-04T07:13:14.259Z,6.63
2018-08-04T07:15:42.106Z,6.20
2018-08-04T07:18:10.065Z,6.53
2018-08-04T07:20:37.947Z,6.63
2018-08-04T07:23:05.731Z,6.93
2018-08-04T07:25:33.553Z,5.90
2018-08-04T07:28:01.337Z,7.70
2018-08-04T07:30:29.183Z,6.73
2018-08-04T07:33:02.263Z,6.70
2018-08-04T07:35:30.983Z,5.97
2018-08-04T07:37:58.751Z,6.73
2018-08-04T07:40:26.631Z,7.30
2018-08-04T07:42:54.449Z,6.53
2018-08-04T07:45:22.249Z,7.63
2018-08-04T07:47:50.169Z,7.23
2018-08-04T07:50:18.518Z,7.80
2018-08-04T07:52:46.300Z,7.20
2018-08-04T07:55:14.065Z,7.03
2018-08-04T07:57:41.867Z,7.17
2018-08-04T08:00:09.919Z,7.60
2018-08-04T08:02:37.777Z,7.67
2018-08-04T08:05:05.962Z,7.67
2018-08-04T08:07:33.833Z,7.47
2018-08-04T08:10:01.681Z,7.40
2018-08-04T08:12:30.085Z,7.50
2018-08-04T08:14:58.359Z,7.13
2018-08-04T08:17:26.140Z,7.63
2018-08-04T08:19:54.077Z,7.20
2018-08-04T08:22:35.720Z,7.50
2018-08-04T08:25:04.051Z,7.97
2018-08-04T08:27:32.040Z,8.10
2018-08-04T08:29:59.919Z,8.47
2018-08-04T08:32:27.742Z,8.77
2018-08-04T08:34:55.587Z,8.27
2018-08-04T08:37:23.346Z,7.83
2018-08-04T08:39:51.190Z,8.73
2018-08-04T08:42:18.945Z,8.00
2018-08-04T08:44:46.782Z,8.17
2018-08-04T08:47:14.838Z,8.07
2018-08-04T08:49:42.590Z,9.47
2018-08-04T08:52:10.435Z,9.00
2018-08-04T08:54:38.345Z,9.37
2018-08-04T08:57:06.140Z,8.57
2018-08-04T08:59:34.049Z,9.10
2018-08-04T09:02:01.857Z,9.00
2018-08-04T09:04:29.693Z,8.80
2018-08-04T09:06:57.488Z,9.27
2018-08-04T09:09:25.255Z,9.70
2018-08-04T09:11:53.080Z,10.13
2018-08-04T09:14:20.885Z,8.33
2018-08-04T09:16:48.784Z,9.50
2018-08-04T09:19:16.636Z,10.20
2018-08-04T09:21:44.491Z,9.53
2018-08-04T09:24:12.340Z,9.13
2018-08-04T09:26:40.383Z,8.83
2018-08-04T09:29:08.158Z,8.60
2018-08-04T09:31:36.328Z,8.93
2018-08-04T09:34:04.176Z,8.60
2018-08-04T09:36:31.992Z,8.97
2018-08-04T09:39:00.469Z,9.30
2018-08-04T09:41:28.244Z,8.43
2018-08-04T09:43:56.047Z,8.80
2018-08-04T09:46:23.940Z,9.10
2018-08-04T09:48:51.846Z,8.60
2018-08-04T09:51:19.647Z,8.93
2018-08-04T09:53:47.492Z,8.63
2018-08-04T09:56:15.323Z,8.25
2018-08-04T09:58:43.080Z,8.80
2018-08-04T10:01:16.967Z,9.80
2018-08-04T10:03:44.933Z,9.13
2018-08-04T10:06:12.808Z,9.53
2018-08-04T10:08:40.623Z,9.23
2018-08-04T10:11:08.553Z,9.40
2018-08-04T10:13:36.428Z,8.20
2018-08-04T10:16:04.995Z,10.25
2018-08-04T10:18:32.855Z,8.70
2018-08-04T10:21:00.651Z,9.78
2018-08-04T10:23:28.468Z,8.70
2018-08-04T10:25:56.281Z,8.90
2018-08-04T10:28:23.991Z,9.80
2018-08-04T10:30:51.759Z,8.70
2018-08-04T10:33:19.536Z,9.28
2018-08-04T10:35:47.409Z,8.98
2018-08-04T10:38:15.200Z,8.60
2018-08-04T10:40:43.011Z,9.15
2018-08-04T10:43:10.801Z,8.63
2018-08-04T10:45:38.623Z,8.98
2018-08-04T10:48:06.423Z,9.23
2018-08-04T10:50:34.248Z,8.30
2018-08-04T10:53:02.060Z,8.35
2018-08-04T10:55:29.895Z,8.68
2018-08-04T10:57:57.803Z,7.92
2018-08-04T11:00:25.580Z,8.73
2018-08-04T11:02:53.375Z,8.70
2018-08-04T11:05:21.186Z,8.78
2018-08-04T11:07:48.948Z,8.03
2018-08-04T11:10:16.751Z,8.10
2018-08-04T11:12:44.563Z,8.50
2018-08-04T11:15:12.356Z,8.25
2018-08-04T11:17:40.229Z,8.15
2018-08-04T11:20:08.083Z,7.90
2018-08-04T11:22:35.914Z,7.72
2018-08-04T11:25:04.035Z,7.95
2018-08-04T11:27:31.888Z,8.45
2018-08-04T11:29:59.702Z,8.73
2018-08-04T11:32:27.558Z,7.92
2018-08-04T11:34:55.379Z,7.80
2018-08-04T11:37:23.190Z,8.10
2018-08-04T11:39:51.043Z,7.70
2018-08-04T11:42:18.820Z,7.20
2018-08-04T11:44:46.603Z,6.83
2018-08-04T11:47:14.439Z,6.12
2018-08-04T11:49:42.259Z,6.42
2018-08-04T11:52:10.128Z,6.60
2018-08-04T11:54:37.859Z,6.17
2018-08-04T11:57:05.759Z,6.65
2018-08-04T11:59:33.638Z,6.78
2018-08-04T12:02:01.558Z,6.90
2018-08-04T12:04:29.336Z,6.65
2018-08-04T12:06:57.179Z,6.72
2018-08-04T12:09:24.963Z,7.00
2018-08-04T12:11:52.725Z,7.67
2018-08-04T12:14:20.541Z,8.43
2018-08-04T12:16:48.419Z,7.12
2018-08-04T12:19:16.198Z,7.87
2018-08-04T12:21:43.987Z,7.83
2018-08-04T12:24:11.839Z,8.35
2018-08-04T12:26:39.615Z,8.05
2018-08-04T12:29:07.396Z,8.28
2018-08-04T12:31:35.221Z,7.90
2018-08-04T12:34:02.931Z,8.20
2018-08-04T12:36:30.771Z,7.50
2018-08-04T12:38:58.603Z,8.68
2018-08-04T12:41:26.507Z,7.67
2018-08-04T12:43:54.319Z,8.30
2018-08-04T12:46:22.171Z,8.40
2018-08-04T12:48:49.950Z,7.42
2018-08-04T12:51:17.719Z,8.45
2018-08-04T12:53:45.531Z,8.38
2018-08-04T12:56:13.347Z,7.58
2018-08-04T12:58:41.195Z,7.05
2018-08-04T13:01:09.047Z,7.22
2018-08-04T13:03:36.914Z,6.95
2018-08-04T13:06:04.915Z,6.95
2018-08-04T13:08:32.715Z,7.83
2018-08-04T13:11:00.451Z,6.45
2018-08-04T13:13:28.236Z,7.45
2018-08-04T13:15:56.131Z,6.08
2018-08-04T13:18:23.974Z,5.72
2018-08-04T13:20:52.027Z,6.10
2018-08-04T13:23:19.770Z,7.05
2018-08-04T13:25:47.614Z,7.20
2018-08-04T13:28:15.411Z,6.78
2018-08-04T13:30:43.267Z,7.60
2018-08-04T13:33:11.034Z,7.40
2018-08-04T13:35:38.807Z,7.35
2018-08-04T13:38:06.665Z,8.35
2018-08-04T13:40:34.519Z,8.93
2018-08-04T13:43:02.407Z,7.95
2018-08-04T13:45:30.231Z,24.00
2018-08-04T13:47:58.057Z,9.00
2018-08-04T13:50:25.900Z,8.23
2018-08-04T13:52:53.739Z,9.48
2018-08-04T13:55:22.121Z,9.45
2018-08-04T13:57:49.967Z,9.43
2018-08-04T14:00:17.690Z,9.10
2018-08-04T14:02:45.544Z,9.53
2018-08-04T14:05:13.392Z,9.13
2018-08-04T14:07:41.156Z,8.23
2018-08-04T14:10:12.605Z,8.03
2018-08-04T14:12:49.033Z,8.73
2018-08-04T14:15:24.487Z,8.70
2018-08-04T14:17:52.385Z,10.20
2018-08-04T14:20:26.369Z,11.37
2018-08-04T14:22:54.236Z,10.47
2018-08-04T14:25:22.088Z,11.13
2018-08-04T14:27:51.746Z,13.00
2018-08-04T14:30:20.256Z,11.50
2018-08-04T14:32:53.026Z,9.90
2018-08-04T14:35:28.580Z,10.00
2018-08-04T14:37:56.848Z,9.50
2018-08-04T14:40:24.599Z,10.73
2018-08-04T14:42:52.396Z,9.43
2018-08-04T14:45:20.476Z,17.70
2018-08-04T14:47:48.778Z,9.10
2018-08-04T14:50:16.683Z,8.07
2018-08-04T14:52:44.462Z,7.90
2018-08-04T14:55:12.387Z,7.70
2018-08-04T14:57:40.154Z,18.67
2018-08-04T15:00:08.099Z,9.33
2018-08-04T15:02:35.862Z,8.03
2018-08-04T15:05:05.487Z,7.93
2018-08-04T15:07:33.268Z,8.47
2018-08-04T15:10:01.070Z,9.20
2018-08-04T15:12:28.936Z,7.87
2018-08-04T15:14:56.687Z,9.13
2018-08-04T15:17:25.271Z,20.60
2018-08-04T15:19:53.079Z,27.43
2018-08-04T15:22:20.996Z,8.50
2018-08-04T15:24:48.948Z,12.30
2018-08-04T15:27:19.951Z,12.73
2018-08-04T15:29:47.747Z,8.33
2018-08-04T15:32:15.756Z,8.10
2018-08-04T15:34:43.591Z,7.80
2018-08-04T15:37:11.315Z,7.87
2018-08-04T15:39:39.166Z,7.13
2018-08-04T15:42:07.100Z,7.40
2018-08-04T15:44:35.187Z,7.57
2018-08-04T15:47:03.474Z,7.77
2018-08-04T15:49:31.328Z,8.20
2018-08-04T15:51:59.291Z,7.63
2018-08-04T15:54:27.104Z,7.57
2018-08-04T15:56:54.915Z,10.13
2018-08-04T15:59:23.152Z,10.67
2018-08-04T16:01:51.011Z,9.70
2018-08-04T16:04:18.840Z,20.90
2018-08-04T16:06:46.599Z,7.40
2018-08-04T16:09:14.380Z,7.57
2018-08-04T16:11:42.216Z,21.47
2018-08-04T16:14:10.347Z,10.33
2018-08-04T16:16:39.020Z,7.57
2018-08-04T16:19:07.287Z,7.90
2018-08-04T16:21:35.135Z,7.67
2018-08-04T16:24:03.000Z,8.10
2018-08-04T16:26:30.835Z,7.37
2018-08-04T16:29:01.324Z,7.60
2018-08-04T16:31:29.141Z,8.07
2018-08-04T16:33:57.235Z,8.17
2018-08-04T16:36:28.617Z,7.00
2018-08-04T16:38:56.417Z,6.90
2018-08-04T16:41:24.277Z,6.60
2018-08-04T16:43:52.052Z,6.90
2018-08-04T16:46:19.911Z,7.07
2018-08-04T16:48:47.715Z,6.53
2018-08-04T16:51:15.486Z,6.50
2018-08-04T16:53:43.245Z,6.27
2018-08-04T16:56:11.103Z,6.10
2018-08-04T16:58:39.015Z,6.63
2018-08-04T17:01:06.898Z,6.20
2018-08-04T17:03:34.667Z,6.67
2018-08-04T17:06:02.531Z,6.57
2018-08-04T17:08:30.292Z,7.07
2018-08-04T17:10:58.115Z,6.30
2018-08-04T17:13:25.923Z,6.50
2018-08-04T17:15:53.780Z,6.50
2018-08-04T17:18:21.593Z,6.47
2018-08-04T17:20:49.399Z,7.00
2018-08-04T17:23:17.175Z,6.90
2018-08-04T17:25:45.006Z,6.87
2018-08-04T17:28:12.762Z,7.20
2018-08-04T17:30:40.664Z,6.50
2018-08-04T17:33:08.511Z,7.13
2018-08-04T17:35:36.300Z,7.00
2018-08-04T17:38:05.148Z,7.13
2018-08-04T17:40:32.943Z,7.00
2018-08-04T17:43:00.966Z,7.27
2018-08-04T17:45:28.775Z,6.70
2018-08-04T17:47:56.543Z,7.57
2018-08-04T17:50:24.389Z,7.23
2018-08-04T17:52:52.175Z,7.13
2018-08-04T17:55:19.940Z,7.97
2018-08-04T17:57:47.783Z,7.23
2018-08-04T18:00:15.655Z,8.40
2018-08-04T18:02:43.493Z,7.60
2018-08-04T18:05:11.303Z,7.80
2018-08-04T18:07:39.274Z,9.67
2018-08-04T18:10:07.223Z,9.07
2018-08-04T18:12:34.977Z,7.90
2018-08-04T18:15:03.610Z,7.30
2018-08-04T18:17:31.399Z,7.33
2018-08-04T18:19:59.223Z,7.53
2018-08-04T18:22:27.160Z,8.77
2018-08-04T18:24:54.980Z,7.37
2018-08-04T18:27:22.768Z,7.43
2018-08-04T18:29:50.744Z,7.67
2018-08-04T18:32:18.423Z,7.73
2018-08-04T18:34:46.211Z,9.03
2018-08-04T18:37:14.037Z,7.87
2018-08-04T18:39:41.879Z,7.57
2018-08-04T18:42:09.730Z,7.73
2018-08-04T18:44:37.666Z,7.87
2018-08-04T18:47:05.416Z,8.87
2018-08-04T18:49:33.244Z,7.97
2018-08-04T18:52:01.161Z,7.90
2018-08-04T18:54:29.317Z,7.00
2018-08-04T18:56:57.164Z,6.50
2018-08-04T18:59:24.947Z,6.07
2018-08-04T19:01:52.800Z,6.27
2018-08-04T19:04:21.511Z,5.73
2018-08-04T19:06:49.311Z,6.40
2018-08-04T19:09:17.160Z,6.00
2018-08-04T19:11:44.935Z,6.00
2018-08-04T19:14:12.758Z,6.10
2018-08-04T19:16:40.645Z,5.40
2018-08-04T19:19:08.399Z,5.50
2018-08-04T19:21:36.198Z,6.20
2018-08-04T19:24:04.040Z,5.60
2018-08-04T19:26:34.117Z,5.80
2018-08-04T19:29:01.933Z,5.73
2018-08-04T19:31:29.878Z,5.60
2018-08-04T19:33:57.788Z,5.20
2018-08-04T19:36:25.740Z,5.03
2018-08-04T19:38:55.118Z,5.30
2018-08-04T19:41:24.232Z,5.20
2018-08-04T19:43:52.625Z,4.90
2018-08-04T19:46:20.501Z,4.83
2018-08-04T19:48:49.367Z,4.47
2018-08-04T19:51:17.256Z,4.20
2018-08-04T19:53:46.771Z,4.60
2018-08-04T19:56:14.587Z,4.40
2018-08-04T19:58:43.199Z,4.03
2018-08-04T20:01:12.366Z,3.30
2018-08-04T20:03:40.280Z,3.60
2018-08-04T20:06:09.033Z,3.30
2018-08-04T20:08:37.565Z,3.30
2018-08-04T20:11:05.363Z,3.43
2018-08-04T20:13:33.173Z,3.50
2018-08-04T20:16:00.990Z,3.47
2018-08-04T20:18:29.004Z,3.10
2018-08-04T20:20:56.923Z,3.20
2018-08-04T20:23:24.811Z,2.67
2018-08-04T20:25:52.892Z,3.33
2018-08-04T20:28:20.935Z,3.83
2018-08-04T20:30:48.923Z,3.20
2018-08-04T20:33:17.046Z,3.53
2018-08-04T20:35:45.300Z,3.23
2018-08-04T20:38:13.123Z,2.80
2018-08-04T20:40:40.920Z,3.00
2018-08-04T20:43:08.716Z,2.73
2018-08-04T20:45:36.498Z,2.93
2018-08-04T20:48:05.770Z,2.60
2018-08-04T20:50:33.583Z,2.27
2018-08-04T20:53:01.629Z,2.70
2018-08-04T20:55:29.603Z,2.40
2018-08-04T20:57:57.442Z,2.23
2018-08-04T21:00:25.267Z,2.03
2018-08-04T21:02:53.111Z,2.53
2018-08-04T21:05:21.163Z,2.40
2018-08-04T21:07:49.156Z,2.30
2018-08-04T21:10:17.008Z,2.30
2018-08-04T21:12:44.854Z,2.17
2018-08-04T21:15:12.687Z,1.90
2018-08-04T21:17:40.468Z,2.13
2018-08-04T21:20:08.295Z,2.40
2018-08-04T21:22:37.274Z,2.00
2018-08-04T21:25:05.164Z,1.90
2018-08-04T21:27:32.972Z,1.93
2018-08-04T21:30:00.915Z,2.30
2018-08-04T21:32:28.714Z,2.20
2018-08-04T21:34:56.692Z,2.30
2018-08-04T21:37:24.500Z,2.10
2018-08-04T21:39:52.343Z,2.20
2018-08-04T21:42:20.141Z,2.23
2018-08-04T21:44:47.984Z,2.47
2018-08-04T21:47:17.117Z,2.10
2018-08-04T21:49:44.940Z,2.00
2018-08-04T21:52:12.795Z,2.30
2018-08-04T21:54:40.635Z,2.40
2018-08-04T21:57:08.453Z,2.10
2018-08-04T21:59:36.311Z,2.30
2018-08-04T22:02:04.210Z,2.43
2018-08-04T22:04:32.054Z,2.07
2018-08-04T22:08:15.111Z,2.30
2018-08-04T22:10:42.952Z,2.13
2018-08-04T22:13:10.812Z,2.23
2018-08-04T22:15:38.696Z,2.37
2018-08-04T22:18:06.588Z,2.63
2018-08-04T22:20:34.347Z,2.20
2018-08-04T22:23:02.146Z,2.27
2018-08-04T22:25:30.339Z,2.20
2018-08-04T22:27:58.590Z,2.10
2018-08-04T22:30:26.607Z,2.20
2018-08-04T22:32:54.416Z,2.30
2018-08-04T22:35:22.748Z,2.60
2018-08-04T22:37:51.152Z,2.17
2018-08-04T22:40:19.902Z,2.10
2018-08-04T22:42:47.794Z,1.90
2018-08-04T22:46:06.563Z,2.13
2018-08-04T22:48:34.583Z,2.30
2018-08-04T22:51:02.541Z,2.10
2018-08-04T22:53:30.636Z,2.30
2018-08-04T22:55:58.439Z,2.07
2018-08-04T22:58:26.238Z,2.00
2018-08-04T23:00:54.055Z,2.00
2018-08-04T23:03:21.835Z,2.47
2018-08-04T23:05:49.589Z,2.27
2018-08-04T23:08:17.388Z,2.07
2018-08-04T23:10:45.244Z,2.00
2018-08-04T23:13:13.621Z,2.20
2018-08-04T23:15:41.500Z,2.43
2018-08-04T23:18:09.680Z,2.20
2018-08-04T23:20:37.634Z,2.07
2018-08-04T23:23:06.263Z,2.10
2018-08-04T23:25:34.120Z,2.07
2018-08-04T23:28:01.888Z,2.10
2018-08-04T23:30:29.673Z,2.10
2018-08-04T23:32:57.480Z,2.10
2018-08-04T23:35:26.083Z,2.13
2018-08-04T23:37:54.012Z,1.90
2018-08-04T23:40:22.266Z,2.20
2018-08-04T23:42:50.027Z,1.90
2018-08-04T23:45:17.900Z,1.93
2018-08-04T23:47:45.709Z,2.07
2018-08-04T23:50:13.622Z,1.90
2018-08-04T23:52:41.552Z,2.00
2018-08-04T23:55:09.336Z,2.00
2018-08-04T23:57:37.191Z,2.10
